RPA5851 KIND-KBOS
Flight info
| Callsign | RPA5851 |
|---|---|
| Flight time | 1h 45m |
| Altitude | 35000 |
| Route | MAREO5 BDOCK DJB JHW Q82 PONCT JFUND2 |
| Aircraft | E75L/M-SDE3GILORVW/S |
Departure
| Time | 2026-05-05 22:40 |
|---|---|
| Airport | Indianapolis International Airport (KIND) |
Arrival
| Time | 2026-05-06 00:25 |
|---|---|
| Airport | Boston Logan International Airport (KBOS) |
| Time | Latitude | Longitude | Altitude | Speed | Heading |
|---|---|---|---|---|---|
| 2026-05-05 22:13 | 39.71529 | -86.29557 | 779 ft | 0 kts | 139° |
| 2026-05-05 22:30 | 39.71538 | -86.29567 | 779 ft | 3 kts | 142° |
| 2026-05-05 22:30 | 39.71556 | -86.29581 | 779 ft | 0 kts | 154° |
| 2026-05-05 22:32 | 39.71555 | -86.29581 | 779 ft | 0 kts | 148° |
| 2026-05-05 22:33 | 39.71554 | -86.29579 | 779 ft | 0 kts | 120° |
| 2026-05-05 22:33 | 39.71555 | -86.29576 | 779 ft | 0 kts | 92° |
| 2026-05-05 22:33 | 39.71558 | -86.29571 | 779 ft | 1 kts | 44° |
| 2026-05-05 22:33 | 39.71585 | -86.29552 | 779 ft | 8 kts | 27° |
| 2026-05-05 22:34 | 39.71657 | -86.29515 | 779 ft | 14 kts | 20° |
| 2026-05-05 22:34 | 39.71762 | -86.29472 | 779 ft | 15 kts | 15° |
| 2026-05-05 22:34 | 39.71855 | -86.29437 | 779 ft | 12 kts | 354° |
| 2026-05-05 22:34 | 39.71926 | -86.29523 | 779 ft | 17 kts | 309° |
| 2026-05-05 22:35 | 39.72002 | -86.29646 | 779 ft | 15 kts | 308° |
| 2026-05-05 22:35 | 39.72076 | -86.29669 | 779 ft | 13 kts | 33° |
| 2026-05-05 22:35 | 39.72158 | -86.29601 | 779 ft | 14 kts | 6° |
| 2026-05-05 22:35 | 39.72233 | -86.29671 | 779 ft | 15 kts | 302° |
| 2026-05-05 22:36 | 39.72194 | -86.29800 | 779 ft | 19 kts | 224° |
| 2026-05-05 22:36 | 39.72089 | -86.29936 | 779 ft | 24 kts | 224° |
| 2026-05-05 22:36 | 39.71965 | -86.30092 | 779 ft | 25 kts | 224° |
| 2026-05-05 22:36 | 39.71841 | -86.30251 | 779 ft | 25 kts | 225° |
| 2026-05-05 22:37 | 39.71718 | -86.30407 | 778 ft | 25 kts | 224° |
| 2026-05-05 22:37 | 39.71596 | -86.30568 | 779 ft | 25 kts | 224° |
| 2026-05-05 22:37 | 39.71471 | -86.30722 | 779 ft | 25 kts | 224° |
| 2026-05-05 22:37 | 39.71349 | -86.30877 | 779 ft | 25 kts | 225° |
| 2026-05-05 22:38 | 39.71226 | -86.31033 | 779 ft | 25 kts | 225° |
| 2026-05-05 22:38 | 39.71104 | -86.31190 | 778 ft | 25 kts | 224° |
| 2026-05-05 22:38 | 39.70981 | -86.31346 | 778 ft | 25 kts | 225° |
| 2026-05-05 22:38 | 39.70859 | -86.31503 | 779 ft | 24 kts | 225° |
| 2026-05-05 22:39 | 39.70738 | -86.31657 | 779 ft | 24 kts | 225° |
| 2026-05-05 22:39 | 39.70619 | -86.31810 | 779 ft | 24 kts | 223° |
| 2026-05-05 22:39 | 39.70552 | -86.31924 | 778 ft | 10 kts | 284° |
| 2026-05-05 22:39 | 39.70603 | -86.32006 | 777 ft | 14 kts | 314° |
| 2026-05-05 22:40 | 39.70678 | -86.32024 | 776 ft | 14 kts | 38° |
| 2026-05-05 22:40 | 39.70877 | -86.31774 | 776 ft | 76 kts | 44° |
| 2026-05-05 22:40 | 39.71431 | -86.31070 | 802 ft | 142 kts | 44° |
| 2026-05-05 22:40 | 39.72166 | -86.30115 | 1583 ft | 155 kts | 40° |
| 2026-05-05 22:41 | 39.73016 | -86.28998 | 2184 ft | 190 kts | 46° |
| 2026-05-05 22:41 | 39.73947 | -86.27689 | 2888 ft | 205 kts | 45° |
| 2026-05-05 22:41 | 39.74960 | -86.26313 | 3568 ft | 216 kts | 45° |
| 2026-05-05 22:41 | 39.76065 | -86.24863 | 4129 ft | 236 kts | 45° |
| 2026-05-05 22:42 | 39.77266 | -86.23277 | 4803 ft | 258 kts | 45° |
| 2026-05-05 22:42 | 39.78596 | -86.21533 | 5441 ft | 281 kts | 44° |
| 2026-05-05 22:42 | 39.79992 | -86.19682 | 6147 ft | 300 kts | 45° |
| 2026-05-05 22:42 | 39.81477 | -86.17689 | 6944 ft | 311 kts | 45° |
| 2026-05-05 22:43 | 39.82939 | -86.15575 | 7828 ft | 318 kts | 56° |
| 2026-05-05 22:43 | 39.83707 | -86.12900 | 8786 ft | 318 kts | 83° |
| 2026-05-05 22:43 | 39.83874 | -86.10019 | 9683 ft | 321 kts | 91° |
| 2026-05-05 22:43 | 39.83987 | -86.07085 | 10412 ft | 332 kts | 89° |
| 2026-05-05 22:44 | 39.84150 | -86.04017 | 10974 ft | 346 kts | 88° |
| 2026-05-05 22:44 | 39.84334 | -86.00856 | 11693 ft | 354 kts | 87° |
| 2026-05-05 22:44 | 39.84537 | -85.97642 | 12472 ft | 360 kts | 86° |
| 2026-05-05 22:44 | 39.84741 | -85.94368 | 13344 ft | 366 kts | 86° |
| 2026-05-05 22:45 | 39.84953 | -85.91059 | 14260 ft | 369 kts | 86° |
| 2026-05-05 22:45 | 39.85168 | -85.87710 | 15193 ft | 373 kts | 86° |
| 2026-05-05 22:45 | 39.85382 | -85.84331 | 16122 ft | 376 kts | 86° |
| 2026-05-05 22:45 | 39.85591 | -85.80921 | 17000 ft | 380 kts | 86° |
| 2026-05-05 22:46 | 39.85793 | -85.77473 | 17834 ft | 385 kts | 85° |
| 2026-05-05 22:46 | 39.85992 | -85.73974 | 18582 ft | 390 kts | 85° |
| 2026-05-05 22:46 | 39.86187 | -85.70436 | 19325 ft | 394 kts | 86° |
| 2026-05-05 22:46 | 39.86381 | -85.66862 | 20077 ft | 398 kts | 86° |
| 2026-05-05 22:47 | 39.86570 | -85.63251 | 20808 ft | 402 kts | 86° |
| 2026-05-05 22:47 | 39.86755 | -85.59607 | 21464 ft | 406 kts | 86° |
| 2026-05-05 22:47 | 39.86934 | -85.55920 | 22077 ft | 411 kts | 86° |
| 2026-05-05 22:47 | 39.87109 | -85.52192 | 22699 ft | 415 kts | 86° |
| 2026-05-05 22:48 | 39.87281 | -85.48424 | 23326 ft | 419 kts | 86° |
| 2026-05-05 22:48 | 39.87451 | -85.44617 | 23871 ft | 423 kts | 86° |
| 2026-05-05 22:48 | 39.87617 | -85.40776 | 24420 ft | 427 kts | 86° |
| 2026-05-05 22:48 | 39.87781 | -85.36902 | 24960 ft | 431 kts | 86° |
| 2026-05-05 22:49 | 39.87940 | -85.32994 | 25505 ft | 434 kts | 86° |
| 2026-05-05 22:49 | 39.88096 | -85.29060 | 26031 ft | 437 kts | 86° |
| 2026-05-05 22:49 | 39.88248 | -85.25084 | 26543 ft | 441 kts | 86° |
| 2026-05-05 22:49 | 39.88442 | -85.21085 | 27023 ft | 444 kts | 84° |
| 2026-05-05 22:50 | 39.88674 | -85.17068 | 27529 ft | 447 kts | 84° |
| 2026-05-05 22:50 | 39.88900 | -85.13022 | 28003 ft | 450 kts | 84° |
| 2026-05-05 22:50 | 39.89126 | -85.08941 | 28458 ft | 453 kts | 84° |
| 2026-05-05 22:50 | 39.89351 | -85.04831 | 28898 ft | 457 kts | 84° |
| 2026-05-05 22:51 | 39.89575 | -85.00697 | 29351 ft | 460 kts | 84° |
| 2026-05-05 22:51 | 39.89796 | -84.96587 | 29778 ft | 462 kts | 84° |
| 2026-05-05 22:51 | 39.90022 | -84.92341 | 30158 ft | 465 kts | 84° |
| 2026-05-05 22:51 | 39.90242 | -84.88179 | 30491 ft | 468 kts | 84° |
| 2026-05-05 22:52 | 39.90467 | -84.83879 | 30859 ft | 470 kts | 84° |
| 2026-05-05 22:52 | 39.90689 | -84.79623 | 31186 ft | 473 kts | 84° |
| 2026-05-05 22:52 | 39.90910 | -84.75337 | 31495 ft | 475 kts | 84° |
| 2026-05-05 22:52 | 39.91131 | -84.71030 | 31796 ft | 478 kts | 84° |
| 2026-05-05 22:53 | 39.91350 | -84.66706 | 32125 ft | 479 kts | 84° |
| 2026-05-05 22:53 | 39.91569 | -84.62375 | 32519 ft | 479 kts | 84° |
| 2026-05-05 22:53 | 39.91783 | -84.58104 | 32905 ft | 479 kts | 84° |
| 2026-05-05 22:53 | 39.91997 | -84.53781 | 33276 ft | 478 kts | 84° |
| 2026-05-05 22:54 | 39.92210 | -84.49464 | 33694 ft | 477 kts | 84° |
| 2026-05-05 22:54 | 39.92421 | -84.45149 | 34028 ft | 477 kts | 84° |
| 2026-05-05 22:54 | 39.92630 | -84.40846 | 34361 ft | 475 kts | 84° |
| 2026-05-05 22:54 | 39.92837 | -84.36553 | 34692 ft | 474 kts | 85° |
| 2026-05-05 22:55 | 39.93041 | -84.32273 | 34947 ft | 476 kts | 85° |
| 2026-05-05 22:55 | 39.93982 | -84.23667 | 34921 ft | 484 kts | 65° |
| 2026-05-05 22:55 | 39.95690 | -84.19925 | 34943 ft | 480 kts | 46° |
| 2026-05-05 22:56 | 39.97943 | -84.16708 | 35010 ft | 482 kts | 42° |
| 2026-05-05 22:56 | 40.02619 | -84.10302 | 34851 ft | 490 kts | 43° |
| 2026-05-05 22:57 | 40.07249 | -84.03830 | 34842 ft | 486 kts | 43° |
| 2026-05-05 22:57 | 40.11859 | -83.97339 | 34842 ft | 488 kts | 43° |
| 2026-05-05 22:58 | 40.16465 | -83.90824 | 34843 ft | 488 kts | 44° |
| 2026-05-05 22:58 | 40.21064 | -83.84298 | 34847 ft | 488 kts | 44° |
| 2026-05-05 22:59 | 40.25659 | -83.77764 | 34840 ft | 487 kts | 44° |
| 2026-05-05 22:59 | 40.30246 | -83.71224 | 34849 ft | 488 kts | 44° |
| 2026-05-05 23:00 | 40.37121 | -83.61396 | 34845 ft | 487 kts | 44° |
| 2026-05-05 23:00 | 40.41697 | -83.54835 | 34846 ft | 488 kts | 44° |
| 2026-05-05 23:01 | 40.46257 | -83.48281 | 34846 ft | 486 kts | 44° |
| 2026-05-05 23:01 | 40.50818 | -83.41714 | 34852 ft | 487 kts | 44° |
| 2026-05-05 23:02 | 40.55351 | -83.35174 | 34838 ft | 487 kts | 44° |
| 2026-05-05 23:02 | 40.59908 | -83.28585 | 34844 ft | 487 kts | 44° |
| 2026-05-05 23:03 | 40.64467 | -83.21983 | 34851 ft | 488 kts | 44° |
| 2026-05-05 23:03 | 40.69025 | -83.15369 | 34839 ft | 488 kts | 44° |
| 2026-05-05 23:04 | 40.73586 | -83.08739 | 34847 ft | 488 kts | 44° |
| 2026-05-05 23:04 | 40.78145 | -83.02101 | 34847 ft | 489 kts | 44° |
| 2026-05-05 23:05 | 40.82710 | -82.95443 | 34851 ft | 489 kts | 44° |
| 2026-05-05 23:05 | 40.87271 | -82.88766 | 34851 ft | 490 kts | 44° |
| 2026-05-05 23:06 | 40.91835 | -82.82074 | 34859 ft | 490 kts | 44° |
| 2026-05-05 23:06 | 40.96396 | -82.75373 | 34860 ft | 490 kts | 44° |
| 2026-05-05 23:07 | 41.00953 | -82.68641 | 34859 ft | 491 kts | 44° |
| 2026-05-05 23:07 | 41.05508 | -82.61896 | 34859 ft | 491 kts | 44° |
| 2026-05-05 23:08 | 41.10073 | -82.55138 | 34874 ft | 492 kts | 44° |
| 2026-05-05 23:08 | 41.14611 | -82.48422 | 34874 ft | 492 kts | 44° |
| 2026-05-05 23:09 | 41.19182 | -82.41634 | 34883 ft | 493 kts | 44° |
| 2026-05-05 23:09 | 41.23748 | -82.34829 | 34876 ft | 493 kts | 44° |
| 2026-05-05 23:10 | 41.28308 | -82.28009 | 34876 ft | 494 kts | 44° |
| 2026-05-05 23:10 | 41.32872 | -82.21185 | 34876 ft | 494 kts | 44° |
| 2026-05-05 23:11 | 41.36847 | -82.13719 | 34910 ft | 504 kts | 64° |
| 2026-05-05 23:11 | 41.38900 | -82.06432 | 34872 ft | 506 kts | 67° |
| 2026-05-05 23:12 | 41.41358 | -81.97658 | 34856 ft | 506 kts | 66° |
| 2026-05-05 23:12 | 41.43843 | -81.88895 | 34858 ft | 506 kts | 66° |
| 2026-05-05 23:13 | 41.46334 | -81.80129 | 34860 ft | 506 kts | 66° |
| 2026-05-05 23:13 | 41.48826 | -81.71353 | 34885 ft | 506 kts | 66° |
| 2026-05-05 23:14 | 41.51315 | -81.62566 | 34874 ft | 506 kts | 66° |
| 2026-05-05 23:14 | 41.53798 | -81.53773 | 34883 ft | 506 kts | 66° |
| 2026-05-05 23:15 | 41.56279 | -81.44962 | 34886 ft | 507 kts | 66° |
| 2026-05-05 23:15 | 41.58752 | -81.36142 | 34885 ft | 507 kts | 66° |
| 2026-05-05 23:16 | 41.61223 | -81.27305 | 34877 ft | 508 kts | 66° |
| 2026-05-05 23:16 | 41.63688 | -81.18454 | 34881 ft | 508 kts | 66° |
| 2026-05-05 23:17 | 41.66147 | -81.09595 | 34881 ft | 508 kts | 66° |
| 2026-05-05 23:17 | 41.68600 | -81.00732 | 34866 ft | 508 kts | 66° |
| 2026-05-05 23:18 | 41.71049 | -80.91855 | 34870 ft | 509 kts | 66° |
| 2026-05-05 23:18 | 41.73495 | -80.82974 | 34871 ft | 509 kts | 66° |
| 2026-05-05 23:19 | 41.75937 | -80.74070 | 34872 ft | 509 kts | 67° |
| 2026-05-05 23:19 | 41.78369 | -80.65158 | 34877 ft | 509 kts | 67° |
| 2026-05-05 23:20 | 41.80789 | -80.56302 | 34875 ft | 510 kts | 66° |
| 2026-05-05 23:20 | 41.83206 | -80.47373 | 34872 ft | 509 kts | 67° |
| 2026-05-05 23:21 | 41.85620 | -80.38432 | 34882 ft | 510 kts | 66° |
| 2026-05-05 23:21 | 41.88039 | -80.29489 | 34877 ft | 510 kts | 67° |
| 2026-05-05 23:22 | 41.90441 | -80.20530 | 34877 ft | 510 kts | 67° |
| 2026-05-05 23:22 | 41.92841 | -80.11568 | 34880 ft | 510 kts | 67° |
| 2026-05-05 23:23 | 41.95235 | -80.02593 | 34874 ft | 510 kts | 67° |
| 2026-05-05 23:23 | 41.97615 | -79.93612 | 34878 ft | 510 kts | 67° |
| 2026-05-05 23:24 | 42.00002 | -79.84622 | 34872 ft | 511 kts | 67° |
| 2026-05-05 23:24 | 42.02365 | -79.75621 | 34873 ft | 510 kts | 67° |
| 2026-05-05 23:25 | 42.04747 | -79.66615 | 34874 ft | 511 kts | 67° |
| 2026-05-05 23:25 | 42.07133 | -79.57610 | 34867 ft | 511 kts | 67° |
| 2026-05-05 23:26 | 42.09509 | -79.48595 | 34878 ft | 511 kts | 67° |
| 2026-05-05 23:26 | 42.11870 | -79.39564 | 34877 ft | 511 kts | 68° |
| 2026-05-05 23:27 | 42.14204 | -79.30581 | 34880 ft | 512 kts | 68° |
| 2026-05-05 23:27 | 42.16542 | -79.21526 | 34880 ft | 511 kts | 68° |
| 2026-05-05 23:28 | 42.18813 | -79.12429 | 34876 ft | 514 kts | 73° |
| 2026-05-05 23:28 | 42.20043 | -79.02915 | 34870 ft | 516 kts | 79° |
| 2026-05-05 23:29 | 42.21181 | -78.93362 | 34857 ft | 516 kts | 78° |
| 2026-05-05 23:29 | 42.22371 | -78.83820 | 34842 ft | 516 kts | 78° |
| 2026-05-05 23:30 | 42.23575 | -78.74270 | 34845 ft | 516 kts | 78° |
| 2026-05-05 23:30 | 42.24779 | -78.64723 | 34901 ft | 517 kts | 79° |
| 2026-05-05 23:31 | 42.25996 | -78.55022 | 34878 ft | 530 kts | 79° |
| 2026-05-05 23:31 | 42.27226 | -78.45150 | 34877 ft | 535 kts | 79° |
| 2026-05-05 23:32 | 42.28452 | -78.35242 | 34870 ft | 535 kts | 79° |
| 2026-05-05 23:32 | 42.29671 | -78.25313 | 34867 ft | 536 kts | 79° |
| 2026-05-05 23:33 | 42.30882 | -78.15386 | 34852 ft | 535 kts | 79° |
| 2026-05-05 23:33 | 42.32084 | -78.05457 | 34852 ft | 535 kts | 79° |
| 2026-05-05 23:34 | 42.33277 | -77.95532 | 34849 ft | 535 kts | 79° |
| 2026-05-05 23:34 | 42.34454 | -77.85671 | 34848 ft | 535 kts | 79° |
| 2026-05-05 23:35 | 42.35626 | -77.75741 | 34851 ft | 535 kts | 80° |
| 2026-05-05 23:35 | 42.36782 | -77.65814 | 34855 ft | 535 kts | 80° |
| 2026-05-05 23:36 | 42.37931 | -77.55875 | 34848 ft | 535 kts | 80° |
| 2026-05-05 23:36 | 42.39072 | -77.45951 | 34833 ft | 534 kts | 80° |
| 2026-05-05 23:37 | 42.40204 | -77.36018 | 34818 ft | 534 kts | 80° |
| 2026-05-05 23:37 | 42.41328 | -77.26087 | 34822 ft | 533 kts | 80° |
| 2026-05-05 23:38 | 42.42440 | -77.16172 | 34806 ft | 533 kts | 80° |
| 2026-05-05 23:38 | 42.43544 | -77.06261 | 34811 ft | 533 kts | 80° |
| 2026-05-05 23:39 | 42.44635 | -76.96343 | 34811 ft | 533 kts | 80° |
| 2026-05-05 23:39 | 42.45711 | -76.86420 | 34804 ft | 533 kts | 80° |
| 2026-05-05 23:40 | 42.46781 | -76.76486 | 34809 ft | 533 kts | 81° |
| 2026-05-05 23:40 | 42.47848 | -76.66558 | 34832 ft | 533 kts | 81° |
| 2026-05-05 23:41 | 42.48910 | -76.56620 | 34842 ft | 532 kts | 81° |
| 2026-05-05 23:41 | 42.49960 | -76.46694 | 34842 ft | 532 kts | 81° |
| 2026-05-05 23:42 | 42.51002 | -76.36763 | 34847 ft | 534 kts | 81° |
| 2026-05-05 23:42 | 42.52040 | -76.26780 | 34837 ft | 536 kts | 81° |
| 2026-05-05 23:43 | 42.53058 | -76.16844 | 34818 ft | 536 kts | 81° |
| 2026-05-05 23:43 | 42.54076 | -76.06841 | 34796 ft | 531 kts | 81° |
| 2026-05-05 23:44 | 42.55072 | -75.96956 | 34801 ft | 529 kts | 81° |
| 2026-05-05 23:44 | 42.56062 | -75.87060 | 34812 ft | 529 kts | 81° |
| 2026-05-05 23:45 | 42.57042 | -75.77163 | 34816 ft | 530 kts | 81° |
| 2026-05-05 23:45 | 42.58015 | -75.67257 | 34818 ft | 530 kts | 81° |
| 2026-05-05 23:46 | 42.58981 | -75.57345 | 34826 ft | 530 kts | 81° |
| 2026-05-05 23:46 | 42.59939 | -75.47432 | 34821 ft | 530 kts | 81° |
| 2026-05-05 23:47 | 42.60889 | -75.37510 | 34826 ft | 530 kts | 81° |
| 2026-05-05 23:47 | 42.61830 | -75.27588 | 34813 ft | 530 kts | 81° |
| 2026-05-05 23:48 | 42.62763 | -75.17659 | 34801 ft | 530 kts | 81° |
| 2026-05-05 23:48 | 42.63687 | -75.07734 | 34795 ft | 529 kts | 81° |
| 2026-05-05 23:49 | 42.64602 | -74.97813 | 34793 ft | 529 kts | 81° |
| 2026-05-05 23:49 | 42.65505 | -74.87907 | 34783 ft | 527 kts | 81° |
| 2026-05-05 23:50 | 42.66399 | -74.78009 | 34789 ft | 528 kts | 82° |
| 2026-05-05 23:50 | 42.67285 | -74.68117 | 34792 ft | 527 kts | 81° |
| 2026-05-05 23:51 | 42.68162 | -74.58235 | 34793 ft | 527 kts | 82° |
| 2026-05-05 23:51 | 42.69032 | -74.48347 | 34800 ft | 527 kts | 82° |
| 2026-05-05 23:52 | 42.69895 | -74.38470 | 34797 ft | 526 kts | 82° |
| 2026-05-05 23:52 | 42.70748 | -74.28592 | 34796 ft | 526 kts | 82° |
| 2026-05-05 23:53 | 42.71595 | -74.18789 | 34793 ft | 525 kts | 82° |
| 2026-05-05 23:53 | 42.72429 | -74.08923 | 34794 ft | 525 kts | 82° |
| 2026-05-05 23:54 | 42.73252 | -73.99058 | 34795 ft | 525 kts | 82° |
| 2026-05-05 23:54 | 42.74070 | -73.89202 | 34796 ft | 524 kts | 82° |
| 2026-05-05 23:55 | 42.74738 | -73.79330 | 34820 ft | 524 kts | 88° |
| 2026-05-05 23:55 | 42.74641 | -73.69405 | 34793 ft | 524 kts | 90° |
| 2026-05-05 23:56 | 42.74544 | -73.59502 | 34791 ft | 523 kts | 90° |
| 2026-05-05 23:56 | 42.74456 | -73.49610 | 34785 ft | 523 kts | 89° |
| 2026-05-05 23:57 | 42.74366 | -73.39728 | 34822 ft | 522 kts | 89° |
| 2026-05-05 23:57 | 42.74271 | -73.29913 | 34835 ft | 515 kts | 89° |
| 2026-05-05 23:58 | 42.74170 | -73.20145 | 34560 ft | 521 kts | 89° |
| 2026-05-05 23:58 | 42.74116 | -73.15217 | 34200 ft | 521 kts | 89° |
| 2026-05-05 23:58 | 42.73933 | -73.10266 | 33327 ft | 528 kts | 96° |
| 2026-05-05 23:59 | 42.73412 | -73.05348 | 32714 ft | 524 kts | 99° |
| 2026-05-05 23:59 | 42.72832 | -73.00468 | 31948 ft | 521 kts | 99° |
| 2026-05-05 23:59 | 42.72263 | -72.95622 | 31234 ft | 517 kts | 98° |
| 2026-05-05 23:59 | 42.71698 | -72.90808 | 30528 ft | 514 kts | 99° |
| 2026-05-06 00:00 | 42.71326 | -72.87635 | 30067 ft | 512 kts | 99° |
| 2026-05-06 00:00 | 42.70769 | -72.82883 | 29358 ft | 509 kts | 99° |
| 2026-05-06 00:00 | 42.70212 | -72.78130 | 28698 ft | 509 kts | 99° |
| 2026-05-06 00:00 | 42.69654 | -72.73387 | 28027 ft | 506 kts | 99° |
| 2026-05-06 00:01 | 42.69100 | -72.68684 | 27363 ft | 501 kts | 99° |
| 2026-05-06 00:01 | 42.68551 | -72.64039 | 26705 ft | 495 kts | 100° |
| 2026-05-06 00:01 | 42.68002 | -72.59446 | 26068 ft | 490 kts | 100° |
| 2026-05-06 00:01 | 42.67453 | -72.54937 | 25424 ft | 476 kts | 101° |
| 2026-05-06 00:02 | 42.66920 | -72.50557 | 24808 ft | 464 kts | 101° |
| 2026-05-06 00:02 | 42.66399 | -72.46284 | 24210 ft | 453 kts | 101° |
| 2026-05-06 00:02 | 42.65888 | -72.42110 | 23621 ft | 444 kts | 101° |
| 2026-05-06 00:02 | 42.65385 | -72.38015 | 22999 ft | 435 kts | 101° |
| 2026-05-06 00:03 | 42.64893 | -72.34020 | 22467 ft | 423 kts | 101° |
| 2026-05-06 00:03 | 42.64412 | -72.30117 | 21911 ft | 415 kts | 101° |
| 2026-05-06 00:03 | 42.63969 | -72.26270 | 21368 ft | 410 kts | 101° |
| 2026-05-06 00:03 | 42.63528 | -72.22457 | 20831 ft | 408 kts | 101° |
| 2026-05-06 00:04 | 42.63088 | -72.18661 | 20295 ft | 407 kts | 101° |
| 2026-05-06 00:04 | 42.62646 | -72.14874 | 19760 ft | 405 kts | 101° |
| 2026-05-06 00:04 | 42.62205 | -72.11102 | 19208 ft | 403 kts | 101° |
| 2026-05-06 00:04 | 42.61766 | -72.07360 | 18675 ft | 400 kts | 101° |
| 2026-05-06 00:05 | 42.60881 | -71.99990 | 17785 ft | 388 kts | 102° |
| 2026-05-06 00:05 | 42.60431 | -71.96367 | 17221 ft | 390 kts | 102° |
| 2026-05-06 00:05 | 42.59981 | -71.92754 | 16732 ft | 387 kts | 102° |
| 2026-05-06 00:06 | 42.59533 | -71.89159 | 16232 ft | 385 kts | 102° |
| 2026-05-06 00:06 | 42.59086 | -71.85580 | 15704 ft | 384 kts | 102° |
| 2026-05-06 00:06 | 42.58640 | -71.82019 | 15207 ft | 382 kts | 102° |
| 2026-05-06 00:06 | 42.58136 | -71.78498 | 14702 ft | 378 kts | 105° |
| 2026-05-06 00:07 | 42.57568 | -71.75021 | 14204 ft | 377 kts | 105° |
| 2026-05-06 00:07 | 42.57011 | -71.71579 | 13703 ft | 370 kts | 105° |
| 2026-05-06 00:07 | 42.56468 | -71.68195 | 13200 ft | 364 kts | 105° |
| 2026-05-06 00:07 | 42.55938 | -71.64877 | 12737 ft | 357 kts | 105° |
| 2026-05-06 00:08 | 42.55417 | -71.61605 | 12267 ft | 353 kts | 105° |
| 2026-05-06 00:08 | 42.54900 | -71.58376 | 11921 ft | 348 kts | 106° |
| 2026-05-06 00:08 | 42.54267 | -71.55239 | 11570 ft | 342 kts | 110° |
| 2026-05-06 00:08 | 42.53610 | -71.52182 | 11297 ft | 333 kts | 109° |
| 2026-05-06 00:09 | 42.52989 | -71.49240 | 11057 ft | 326 kts | 109° |
| 2026-05-06 00:09 | 42.52371 | -71.46302 | 10792 ft | 323 kts | 110° |
| 2026-05-06 00:09 | 42.51759 | -71.43386 | 10546 ft | 321 kts | 110° |
| 2026-05-06 00:09 | 42.51150 | -71.40472 | 10297 ft | 321 kts | 110° |
| 2026-05-06 00:10 | 42.50540 | -71.37562 | 10015 ft | 321 kts | 110° |
| 2026-05-06 00:10 | 42.49936 | -71.34649 | 9671 ft | 322 kts | 109° |
| 2026-05-06 00:10 | 42.49358 | -71.31730 | 9341 ft | 319 kts | 109° |
| 2026-05-06 00:10 | 42.48781 | -71.28833 | 8951 ft | 318 kts | 109° |
| 2026-05-06 00:11 | 42.48205 | -71.25946 | 8586 ft | 316 kts | 109° |
| 2026-05-06 00:11 | 42.47632 | -71.23081 | 8221 ft | 313 kts | 109° |
| 2026-05-06 00:11 | 42.47066 | -71.20253 | 7839 ft | 308 kts | 110° |
| 2026-05-06 00:11 | 42.46510 | -71.17484 | 7463 ft | 302 kts | 110° |
| 2026-05-06 00:12 | 42.46335 | -71.14672 | 7050 ft | 302 kts | 82° |
| 2026-05-06 00:12 | 42.47080 | -71.12080 | 6746 ft | 294 kts | 58° |
| 2026-05-06 00:12 | 42.48098 | -71.09710 | 6361 ft | 289 kts | 60° |
| 2026-05-06 00:12 | 42.49041 | -71.07359 | 6118 ft | 278 kts | 58° |
| 2026-05-06 00:13 | 42.50354 | -71.05537 | 6009 ft | 266 kts | 24° |
| 2026-05-06 00:13 | 42.52006 | -71.04653 | 6043 ft | 251 kts | 8° |
| 2026-05-06 00:13 | 42.53691 | -71.03943 | 6086 ft | 255 kts | 11° |
| 2026-05-06 00:13 | 42.55377 | -71.03161 | 6100 ft | 257 kts | 11° |
| 2026-05-06 00:14 | 42.57096 | -71.02342 | 5650 ft | 263 kts | 12° |
| 2026-05-06 00:14 | 42.58810 | -71.01502 | 5247 ft | 262 kts | 13° |
| 2026-05-06 00:14 | 42.60509 | -71.00627 | 4869 ft | 261 kts | 16° |
| 2026-05-06 00:14 | 42.62174 | -70.99658 | 4494 ft | 257 kts | 13° |
| 2026-05-06 00:15 | 42.63859 | -70.98880 | 4118 ft | 255 kts | 12° |
| 2026-05-06 00:15 | 42.65511 | -70.98116 | 4211 ft | 246 kts | 14° |
| 2026-05-06 00:15 | 42.66812 | -70.96714 | 5324 ft | 235 kts | 56° |
| 2026-05-06 00:15 | 42.67318 | -70.94630 | 5926 ft | 235 kts | 89° |
| 2026-05-06 00:16 | 42.67025 | -70.92518 | 5784 ft | 222 kts | 117° |
| 2026-05-06 00:16 | 42.66542 | -70.90575 | 5726 ft | 211 kts | 115° |
| 2026-05-06 00:16 | 42.66104 | -70.88708 | 5386 ft | 213 kts | 116° |
| 2026-05-06 00:16 | 42.65646 | -70.86770 | 4904 ft | 222 kts | 116° |
| 2026-05-06 00:17 | 42.65025 | -70.84884 | 4415 ft | 213 kts | 140° |
| 2026-05-06 00:17 | 42.63882 | -70.83904 | 3991 ft | 179 kts | 186° |
| 2026-05-06 00:17 | 42.62967 | -70.84534 | 4025 ft | 141 kts | 238° |
| 2026-05-06 00:17 | 42.62414 | -70.85643 | 4116 ft | 144 kts | 234° |
| 2026-05-06 00:18 | 42.61830 | -70.86731 | 4154 ft | 144 kts | 236° |
| 2026-05-06 00:18 | 42.61240 | -70.87868 | 4167 ft | 146 kts | 236° |
| 2026-05-06 00:18 | 42.60675 | -70.89016 | 3978 ft | 150 kts | 238° |
| 2026-05-06 00:18 | 42.59811 | -70.89735 | 3932 ft | 157 kts | 195° |
| 2026-05-06 00:19 | 42.58707 | -70.89792 | 4013 ft | 160 kts | 197° |
| 2026-05-06 00:19 | 42.57664 | -70.90184 | 4027 ft | 154 kts | 210° |
| 2026-05-06 00:19 | 42.56657 | -70.90711 | 3973 ft | 156 kts | 207° |
| 2026-05-06 00:19 | 42.55611 | -70.91184 | 3756 ft | 158 kts | 207° |
| 2026-05-06 00:20 | 42.54587 | -70.91691 | 3533 ft | 155 kts | 207° |
| 2026-05-06 00:20 | 42.53586 | -70.92184 | 3335 ft | 152 kts | 207° |
| 2026-05-06 00:20 | 42.52597 | -70.92664 | 3136 ft | 151 kts | 208° |
| 2026-05-06 00:20 | 42.51617 | -70.93141 | 2936 ft | 148 kts | 207° |
| 2026-05-06 00:21 | 42.50660 | -70.93610 | 2743 ft | 145 kts | 208° |
| 2026-05-06 00:21 | 42.49718 | -70.94070 | 2558 ft | 143 kts | 208° |
| 2026-05-06 00:21 | 42.48787 | -70.94524 | 2365 ft | 140 kts | 208° |
| 2026-05-06 00:21 | 42.47880 | -70.94964 | 2175 ft | 137 kts | 206° |
| 2026-05-06 00:22 | 42.46980 | -70.95405 | 2013 ft | 139 kts | 206° |
| 2026-05-06 00:22 | 42.46067 | -70.95851 | 1822 ft | 137 kts | 206° |
| 2026-05-06 00:22 | 42.45234 | -70.96251 | 1670 ft | 115 kts | 207° |
| 2026-05-06 00:22 | 42.44528 | -70.96600 | 1499 ft | 106 kts | 206° |
| 2026-05-06 00:23 | 42.43826 | -70.96941 | 1362 ft | 107 kts | 205° |
| 2026-05-06 00:23 | 42.43147 | -70.97270 | 1227 ft | 101 kts | 206° |
| 2026-05-06 00:23 | 42.42474 | -70.97600 | 1091 ft | 105 kts | 205° |
| 2026-05-06 00:23 | 42.41772 | -70.97942 | 953 ft | 109 kts | 204° |
| 2026-05-06 00:24 | 42.41054 | -70.98292 | 828 ft | 112 kts | 203° |
| 2026-05-06 00:24 | 42.40317 | -70.98661 | 661 ft | 115 kts | 201° |
| 2026-05-06 00:24 | 42.39524 | -70.99036 | 533 ft | 123 kts | 200° |
| 2026-05-06 00:24 | 42.38722 | -70.99432 | 396 ft | 122 kts | 199° |
| 2026-05-06 00:25 | 42.37931 | -70.99814 | 205 ft | 120 kts | 199° |
| 2026-05-06 00:25 | 42.37163 | -71.00188 | 31 ft | 112 kts | 198° |
| 2026-05-06 00:25 | 42.36516 | -71.00501 | 23 ft | 82 kts | 201° |
| 2026-05-06 00:25 | 42.36115 | -71.00699 | 24 ft | 37 kts | 200° |
| 2026-05-06 00:26 | 42.35973 | -71.00829 | 26 ft | 24 kts | 227° |
| 2026-05-06 00:26 | 42.35884 | -71.00966 | 25 ft | 14 kts | 229° |
| 2026-05-06 00:26 | 42.35836 | -71.01082 | 23 ft | 15 kts | 260° |
| 2026-05-06 00:26 | 42.35844 | -71.01234 | 23 ft | 17 kts | 277° |
| 2026-05-06 00:27 | 42.35862 | -71.01402 | 26 ft | 19 kts | 278° |
| 2026-05-06 00:27 | 42.35884 | -71.01560 | 23 ft | 18 kts | 279° |
| 2026-05-06 00:27 | 42.35908 | -71.01736 | 24 ft | 20 kts | 281° |
| 2026-05-06 00:27 | 42.35961 | -71.01916 | 23 ft | 22 kts | 301° |
| 2026-05-06 00:28 | 42.36041 | -71.02097 | 23 ft | 23 kts | 301° |
| 2026-05-06 00:28 | 42.36111 | -71.02249 | 23 ft | 15 kts | 314° |
| 2026-05-06 00:28 | 42.36213 | -71.02261 | 23 ft | 17 kts | 20° |
| 2026-05-06 00:28 | 42.36304 | -71.02214 | 23 ft | 12 kts | 23° |
| 2026-05-06 00:29 | 42.36348 | -71.02171 | 24 ft | 3 kts | 38° |
| 2026-05-06 00:29 | 42.36355 | -71.02163 | 23 ft | 0 kts | 38° |